createdAt,value
2023-07-27T00:01:19.159Z,85968.81
2023-07-27T00:03:45.441Z,85969.63
2023-07-27T00:06:11.606Z,85971.78
2023-07-27T00:08:37.767Z,85962.50
2023-07-27T00:11:03.929Z,85959.22
2023-07-27T00:13:30.108Z,85963.34
2023-07-27T00:15:56.274Z,85962.88
2023-07-27T00:18:22.452Z,85968.34
2023-07-27T00:20:48.609Z,85956.84
2023-07-27T00:23:14.784Z,85968.84
2023-07-27T00:25:40.948Z,85966.19
2023-07-27T00:28:07.121Z,85959.78
2023-07-27T00:30:33.303Z,85963.13
2023-07-27T00:32:59.497Z,85957.88
2023-07-27T00:35:25.701Z,85964.78
2023-07-27T00:37:51.869Z,85961.22
2023-07-27T00:40:18.038Z,85958.31
2023-07-27T00:42:44.188Z,85954.06
2023-07-27T00:45:10.371Z,85955.06
2023-07-27T00:47:36.548Z,85959.31
2023-07-27T00:50:02.753Z,85952.91
2023-07-27T00:52:28.905Z,85952.19
2023-07-27T00:54:55.176Z,85953.16
2023-07-27T00:57:21.355Z,85945.50
2023-07-27T00:59:47.515Z,85935.53
2023-07-27T01:02:13.682Z,85936.31
2023-07-27T01:04:39.838Z,85942.00
2023-07-27T01:07:06.025Z,85929.84
2023-07-27T01:09:32.197Z,85930.31
2023-07-27T01:11:58.397Z,85929.56
2023-07-27T01:14:24.561Z,85929.34
2023-07-27T01:16:50.812Z,85932.69
2023-07-27T01:19:17.078Z,85934.34
2023-07-27T01:21:43.272Z,85927.91
2023-07-27T01:24:09.433Z,85933.13
2023-07-27T01:26:35.772Z,85927.91
2023-07-27T01:29:02.072Z,85917.91
2023-07-27T01:31:28.286Z,85923.28
2023-07-27T01:33:54.456Z,85911.13
2023-07-27T01:36:20.621Z,85911.88
2023-07-27T01:38:46.780Z,85910.84
2023-07-27T01:41:12.979Z,85905.69
2023-07-27T01:43:39.153Z,85915.03
2023-07-27T01:46:05.402Z,85908.38
2023-07-27T01:48:31.592Z,85913.66
2023-07-27T01:50:57.741Z,85914.03
2023-07-27T01:53:23.928Z,85918.53
2023-07-27T01:55:50.087Z,85916.47
2023-07-27T01:58:16.250Z,85913.38
2023-07-27T02:00:42.463Z,85905.97
2023-07-27T02:03:08.718Z,85906.16
2023-07-27T02:05:35.340Z,85900.75
2023-07-27T02:08:01.511Z,85896.75
2023-07-27T02:10:27.830Z,85897.03
2023-07-27T02:12:53.983Z,85896.75
2023-07-27T02:15:20.148Z,85886.03
2023-07-27T02:17:46.368Z,85881.47
2023-07-27T02:20:12.559Z,85875.56
2023-07-27T02:22:38.722Z,85869.19
2023-07-27T02:25:04.904Z,85879.69
2023-07-27T02:27:31.070Z,85878.22
2023-07-27T02:29:57.251Z,85874.66
2023-07-27T02:32:23.447Z,85873.72
2023-07-27T02:34:49.651Z,85870.84
2023-07-27T02:37:15.828Z,85867.28
2023-07-27T02:39:41.988Z,85869.84
2023-07-27T02:42:08.156Z,85860.41
2023-07-27T02:44:34.351Z,85861.13
2023-07-27T02:47:00.509Z,85857.53
2023-07-27T02:49:26.671Z,85855.16
2023-07-27T02:51:52.826Z,85859.16
2023-07-27T02:54:18.982Z,85859.34
2023-07-27T02:56:45.165Z,85870.81
2023-07-27T02:59:11.329Z,85875.38
2023-07-27T03:01:37.531Z,85874.19
2023-07-27T03:04:03.756Z,85876.06
2023-07-27T03:06:29.930Z,85894.59
2023-07-27T03:08:56.110Z,85898.66
2023-07-27T03:11:22.276Z,85907.94
2023-07-27T03:13:48.455Z,85908.63
2023-07-27T03:16:14.618Z,85915.34
2023-07-27T03:18:40.771Z,85911.75
2023-07-27T03:21:06.950Z,85921.75
2023-07-27T03:23:33.153Z,85922.25
2023-07-27T03:25:59.340Z,85914.41
2023-07-27T03:28:25.488Z,85913.47
2023-07-27T03:30:51.674Z,85910.88
2023-07-27T03:33:17.844Z,85909.44
2023-07-27T03:35:43.995Z,85923.72
2023-07-27T03:38:10.171Z,85913.94
2023-07-27T03:40:36.395Z,85912.28
2023-07-27T03:43:02.565Z,85922.50
2023-07-27T03:45:28.712Z,85929.44
2023-07-27T03:47:54.933Z,85926.56
2023-07-27T03:50:21.150Z,85932.72
2023-07-27T03:52:47.341Z,85918.72
2023-07-27T03:55:13.569Z,85901.38
2023-07-27T03:57:39.765Z,85898.78
2023-07-27T04:00:06.060Z,85905.41
2023-07-27T04:02:32.286Z,85906.09
2023-07-27T04:04:58.520Z,85903.53
2023-07-27T04:07:24.687Z,85911.13
2023-07-27T04:09:50.879Z,85912.06
2023-07-27T04:12:17.042Z,85914.69
2023-07-27T04:14:43.203Z,85918.94
2023-07-27T04:17:09.393Z,85919.16
2023-07-27T04:19:35.566Z,85913.25
2023-07-27T04:22:01.843Z,85907.06
2023-07-27T04:24:28.027Z,85918.69
2023-07-27T04:26:54.196Z,85911.03
2023-07-27T04:29:20.352Z,85910.28
2023-07-27T04:31:46.509Z,85919.84
2023-07-27T04:34:12.712Z,85909.28
2023-07-27T04:36:38.867Z,85920.72
2023-07-27T04:39:05.049Z,85911.34
2023-07-27T04:41:31.197Z,85909.06
2023-07-27T04:43:57.890Z,85901.91
2023-07-27T04:46:24.108Z,85901.00
2023-07-27T04:48:50.318Z,85910.28
2023-07-27T04:51:16.492Z,85913.84
2023-07-27T04:53:42.661Z,85905.19
2023-07-27T04:56:08.852Z,85913.47
2023-07-27T04:58:35.028Z,85899.66
2023-07-27T05:01:01.199Z,85898.56
2023-07-27T05:03:27.353Z,85890.97
2023-07-27T05:05:53.535Z,85875.50
2023-07-27T05:08:19.717Z,85884.81
2023-07-27T05:10:45.919Z,85878.94
2023-07-27T05:13:12.087Z,85867.50
2023-07-27T05:15:38.262Z,85873.94
2023-07-27T05:18:04.430Z,85871.50
2023-07-27T05:20:30.617Z,85868.31
2023-07-27T05:22:56.788Z,85868.75
2023-07-27T05:25:22.965Z,85876.63
2023-07-27T05:27:49.147Z,85872.78
2023-07-27T05:30:15.309Z,85876.47
2023-07-27T05:32:41.478Z,85864.72
2023-07-27T05:35:07.664Z,85870.94
2023-07-27T05:37:33.862Z,85875.22
2023-07-27T05:40:00.052Z,85862.81
2023-07-27T05:42:26.237Z,85862.03
2023-07-27T05:44:52.408Z,85865.28
2023-07-27T05:47:18.569Z,85871.66
2023-07-27T05:49:44.729Z,85880.66
2023-07-27T05:52:10.909Z,85873.81
2023-07-27T05:54:37.072Z,85863.63
2023-07-27T05:57:03.253Z,85871.53
2023-07-27T05:59:29.415Z,85886.63
2023-07-27T06:01:55.630Z,85875.34
2023-07-27T06:04:21.881Z,85873.78
2023-07-27T06:06:48.077Z,85873.69
2023-07-27T06:09:14.239Z,85865.41
2023-07-27T06:11:40.397Z,85860.56
2023-07-27T06:14:06.588Z,85865.03
2023-07-27T06:16:33.119Z,85864.34
2023-07-27T06:18:59.560Z,85862.53
2023-07-27T06:21:25.725Z,85854.34
2023-07-27T06:23:51.888Z,85862.38
2023-07-27T06:26:18.063Z,85863.19
2023-07-27T06:28:44.290Z,85865.59
2023-07-27T06:31:10.483Z,85859.75
2023-07-27T06:33:36.669Z,85855.53
2023-07-27T06:36:02.846Z,85861.22
2023-07-27T06:38:29.049Z,85855.28
2023-07-27T06:40:55.241Z,85860.44
2023-07-27T06:43:21.394Z,85854.78
2023-07-27T06:45:47.562Z,85852.69
2023-07-27T06:48:13.856Z,85856.03
2023-07-27T06:50:40.229Z,85864.00
2023-07-27T06:53:06.403Z,85863.16
2023-07-27T06:55:32.563Z,85868.81
2023-07-27T06:57:58.726Z,85864.72
2023-07-27T07:00:24.892Z,85850.25
2023-07-27T07:02:51.155Z,85846.72
2023-07-27T07:05:17.437Z,85838.16
2023-07-27T07:07:43.608Z,85840.66
2023-07-27T07:10:09.800Z,85836.91
2023-07-27T07:12:35.980Z,85836.16
2023-07-27T07:15:02.189Z,85845.34
2023-07-27T07:17:28.367Z,85842.69
2023-07-27T07:19:54.571Z,85848.50
2023-07-27T07:22:20.725Z,85844.00
2023-07-27T07:24:46.943Z,85833.31
2023-07-27T07:27:13.124Z,85835.75
2023-07-27T07:29:39.282Z,85824.81
2023-07-27T07:32:05.455Z,85826.53
2023-07-27T07:34:31.663Z,85819.63
2023-07-27T07:36:57.817Z,85823.44
2023-07-27T07:39:23.970Z,85818.06
2023-07-27T07:41:50.130Z,85815.28
2023-07-27T07:44:16.296Z,85806.25
2023-07-27T07:46:42.480Z,85805.66
2023-07-27T07:49:08.658Z,85804.00
2023-07-27T07:51:34.834Z,85796.84
2023-07-27T07:54:00.999Z,85788.03
2023-07-27T07:56:27.145Z,85785.53
2023-07-27T07:58:53.322Z,85773.81
2023-07-27T08:01:19.543Z,85777.97
2023-07-27T08:03:45.839Z,85770.78
2023-07-27T08:06:12.041Z,85775.03
2023-07-27T08:08:38.193Z,85782.50
2023-07-27T08:11:04.351Z,85778.66
2023-07-27T08:13:30.524Z,85776.91
2023-07-27T08:15:56.692Z,85783.81
2023-07-27T08:18:22.867Z,85791.00
2023-07-27T08:20:49.030Z,85787.69
2023-07-27T08:23:15.214Z,85784.16
2023-07-27T08:25:41.383Z,85783.56
2023-07-27T08:28:07.540Z,85777.25
2023-07-27T08:30:33.731Z,85775.75
2023-07-27T08:33:00.092Z,85778.28
2023-07-27T08:35:26.255Z,85783.41
2023-07-27T08:37:52.419Z,85773.50
2023-07-27T08:40:18.591Z,85760.28
2023-07-27T08:42:44.824Z,85761.72
2023-07-27T08:45:10.993Z,85775.94
2023-07-27T08:47:37.226Z,85766.00
2023-07-27T08:50:03.509Z,85769.16
2023-07-27T08:52:29.706Z,85763.72
2023-07-27T08:54:55.908Z,85767.19
2023-07-27T08:57:22.076Z,85769.50
2023-07-27T08:59:48.235Z,85768.53
2023-07-27T09:02:14.459Z,85760.66
2023-07-27T09:04:40.801Z,85760.78
2023-07-27T09:07:07.047Z,85767.63
2023-07-27T09:09:33.233Z,85766.91
2023-07-27T09:11:59.412Z,85774.59
2023-07-27T09:14:25.578Z,85773.03
2023-07-27T09:16:54.698Z,85775.44
2023-07-27T09:19:22.733Z,85779.66
2023-07-27T09:21:48.894Z,85782.81
2023-07-27T09:24:15.065Z,85777.47
2023-07-27T09:26:41.241Z,85779.09
2023-07-27T09:29:07.399Z,85779.19
2023-07-27T09:31:33.628Z,85779.75
2023-07-27T09:33:59.857Z,85786.16
2023-07-27T09:36:26.057Z,85781.97
2023-07-27T09:38:52.212Z,85783.38
2023-07-27T09:41:18.400Z,85776.81
2023-07-27T09:43:44.559Z,85784.94
2023-07-27T09:46:10.796Z,85787.22
2023-07-27T09:48:37.028Z,85775.25
2023-07-27T09:51:03.272Z,85777.97
2023-07-27T09:53:29.487Z,85777.59
2023-07-27T09:55:55.683Z,85772.06
2023-07-27T09:58:21.874Z,85772.78
2023-07-27T10:00:48.051Z,85761.47
2023-07-27T10:03:14.227Z,85754.06
2023-07-27T10:05:40.426Z,85755.81
2023-07-27T10:08:06.667Z,85741.97
2023-07-27T10:10:32.866Z,85747.03
2023-07-27T10:12:59.069Z,85745.94
2023-07-27T10:15:25.245Z,85749.09
2023-07-27T10:17:51.454Z,85742.59
2023-07-27T10:20:17.684Z,85747.06
2023-07-27T10:22:43.885Z,85739.41
2023-07-27T10:25:10.044Z,85731.63
2023-07-27T10:27:36.214Z,85733.97
2023-07-27T10:30:02.375Z,85730.00
2023-07-27T10:32:28.569Z,85725.00
2023-07-27T10:34:54.781Z,85714.78
2023-07-27T10:37:20.976Z,85712.50
2023-07-27T10:39:47.154Z,85716.44
2023-07-27T10:42:13.375Z,85708.88
2023-07-27T10:44:39.582Z,85702.81
2023-07-27T10:47:05.754Z,85699.75
2023-07-27T10:49:31.927Z,85693.13
2023-07-27T10:51:58.869Z,85684.34
2023-07-27T10:54:25.449Z,85679.44
2023-07-27T10:56:51.607Z,85678.75
2023-07-27T10:59:18.091Z,85675.69
2023-07-27T11:01:44.230Z,85672.91
2023-07-27T11:04:10.417Z,85675.13
2023-07-27T11:06:36.589Z,85678.28
2023-07-27T11:09:02.751Z,85664.94
2023-07-27T11:11:28.904Z,85664.13
2023-07-27T11:13:55.059Z,85661.47
2023-07-27T11:16:21.261Z,85665.94
2023-07-27T11:18:47.471Z,85660.84
2023-07-27T11:21:13.626Z,85665.41
2023-07-27T11:23:39.799Z,85661.22
2023-07-27T11:26:05.978Z,85660.53
2023-07-27T11:28:32.145Z,85658.97
2023-07-27T11:30:58.336Z,85658.00
2023-07-27T11:33:24.494Z,85660.34
2023-07-27T11:35:51.094Z,85657.81
2023-07-27T11:38:17.280Z,85651.06
2023-07-27T11:40:43.655Z,85654.91
2023-07-27T11:43:09.829Z,85654.63
2023-07-27T11:45:35.983Z,85648.97
2023-07-27T11:48:02.215Z,85645.56
2023-07-27T11:50:28.373Z,85643.06
2023-07-27T11:52:54.547Z,85640.44
2023-07-27T11:55:20.697Z,85644.09
2023-07-27T11:57:46.890Z,85634.09
2023-07-27T12:00:13.104Z,85629.97
2023-07-27T12:02:42.872Z,85630.25
2023-07-27T12:05:09.564Z,85632.03
2023-07-27T12:15:02.906Z,85630.28
2023-07-27T12:24:56.852Z,85617.09
2023-07-27T12:27:23.127Z,85618.06
2023-07-27T12:29:49.332Z,85612.69
2023-07-27T12:32:15.769Z,85618.88
2023-07-27T12:39:40.326Z,85612.16
2023-07-27T12:44:35.580Z,85603.94
2023-07-27T12:47:01.757Z,85590.66
2023-07-27T12:49:27.930Z,85601.56
2023-07-27T12:51:54.143Z,85594.31
2023-07-27T12:54:20.344Z,85585.00
2023-07-27T12:56:47.343Z,85591.94
2023-07-27T12:59:13.522Z,85598.31
2023-07-27T13:01:39.747Z,85591.19
2023-07-27T13:04:06.024Z,85599.00
2023-07-27T13:06:34.600Z,85601.31
2023-07-27T13:09:01.175Z,85600.59
2023-07-27T13:11:27.342Z,85610.84
2023-07-27T13:13:53.537Z,85603.53
2023-07-27T13:16:19.745Z,85601.59
2023-07-27T13:18:45.955Z,85598.19
2023-07-27T13:21:12.145Z,85585.75
2023-07-27T13:23:38.299Z,85594.84
2023-07-27T13:26:04.465Z,85592.94
2023-07-27T13:28:30.722Z,85590.41
2023-07-27T13:30:56.918Z,85591.41
2023-07-27T13:33:23.157Z,85580.13
2023-07-27T13:35:49.370Z,85584.59
2023-07-27T13:38:15.554Z,85582.28
2023-07-27T13:40:41.729Z,85589.94
2023-07-27T13:43:07.920Z,85596.44
2023-07-27T13:45:34.104Z,85577.75
2023-07-27T13:48:09.454Z,85572.72
2023-07-27T13:50:36.648Z,85583.63
2023-07-27T13:53:02.815Z,85575.19
2023-07-27T13:55:29.012Z,85578.97
2023-07-27T13:57:55.178Z,85571.41
2023-07-27T14:00:21.345Z,85578.88
2023-07-27T14:02:47.578Z,85570.25
2023-07-27T14:05:13.840Z,85579.94
2023-07-27T14:07:40.022Z,85569.66
2023-07-27T14:10:06.261Z,85566.50
2023-07-27T14:12:32.424Z,85575.66
2023-07-27T14:14:58.634Z,85577.56
2023-07-27T14:17:25.381Z,85575.66
2023-07-27T14:19:51.675Z,85576.50
2023-07-27T14:22:17.843Z,85580.78
2023-07-27T14:24:44.027Z,85572.88
2023-07-27T14:27:10.191Z,85571.91
2023-07-27T14:29:36.367Z,85574.41
2023-07-27T14:32:02.604Z,85574.66
2023-07-27T14:34:28.818Z,85563.53
2023-07-27T14:36:55.072Z,85562.91
2023-07-27T14:39:21.244Z,85566.50
2023-07-27T14:41:47.411Z,85567.56
2023-07-27T14:44:13.907Z,85555.25
2023-07-27T14:46:40.606Z,85561.81
2023-07-27T14:49:06.777Z,85554.72
2023-07-27T14:51:33.396Z,85557.47
2023-07-27T14:54:00.957Z,85559.22
2023-07-27T14:56:27.757Z,85554.53
2023-07-27T14:58:55.095Z,85561.84
2023-07-27T15:01:30.385Z,85554.19
2023-07-27T15:03:57.087Z,85559.16
2023-07-27T15:06:23.493Z,85553.00
2023-07-27T15:08:49.913Z,85551.25
2023-07-27T15:13:45.228Z,85556.50
2023-07-27T15:16:11.418Z,85550.22
2023-07-27T15:18:37.612Z,85552.16
2023-07-27T15:21:03.832Z,85546.00
2023-07-27T15:23:29.986Z,85545.09
2023-07-27T15:25:56.139Z,85543.59
2023-07-27T15:28:22.382Z,85548.88
2023-07-27T15:30:48.610Z,85552.84
2023-07-27T15:33:14.827Z,85545.72
2023-07-27T15:35:41.124Z,85547.53
2023-07-27T15:38:07.301Z,85558.44
2023-07-27T15:40:33.461Z,85545.38
2023-07-27T15:42:59.629Z,85543.09
2023-07-27T15:45:25.812Z,85546.94
2023-07-27T15:47:52.030Z,85537.47
2023-07-27T15:50:18.220Z,85537.47
2023-07-27T15:52:44.419Z,85540.16
2023-07-27T15:55:10.612Z,85537.00
2023-07-27T15:57:36.809Z,85533.69
2023-07-27T16:00:02.994Z,85531.44
2023-07-27T16:02:29.268Z,85536.66
2023-07-27T16:04:55.513Z,85523.59
2023-07-27T16:07:21.685Z,85531.34
2023-07-27T16:09:47.863Z,85530.00
2023-07-27T16:12:14.020Z,85528.91
2023-07-27T16:14:40.175Z,85530.13
2023-07-27T16:17:06.432Z,85524.88
2023-07-27T16:19:32.665Z,85537.50
2023-07-27T16:21:58.835Z,85533.50
2023-07-27T16:24:24.983Z,85536.78
2023-07-27T16:26:51.156Z,85537.13
2023-07-27T16:29:17.336Z,85528.97
2023-07-27T16:31:43.486Z,85535.53
2023-07-27T16:34:09.656Z,85533.75
2023-07-27T16:36:36.004Z,85535.41
2023-07-27T16:39:02.319Z,85529.97
2023-07-27T16:41:28.476Z,85524.25
2023-07-27T16:43:54.644Z,85534.31
2023-07-27T16:46:20.859Z,85528.25
2023-07-27T16:48:47.057Z,85532.25
2023-07-27T16:51:13.228Z,85538.66
2023-07-27T16:53:39.406Z,85535.25
2023-07-27T16:56:05.587Z,85533.03
2023-07-27T16:58:31.755Z,85535.25
2023-07-27T17:00:57.974Z,85544.25
2023-07-27T17:03:24.253Z,85546.13
2023-07-27T17:05:50.439Z,85549.25
2023-07-27T17:08:16.619Z,85552.38
2023-07-27T17:10:42.780Z,85547.66
2023-07-27T17:13:08.936Z,85552.59
2023-07-27T17:15:35.117Z,85553.41
2023-07-27T17:18:01.301Z,85564.97
2023-07-27T17:20:27.526Z,85560.75
2023-07-27T17:22:53.710Z,85558.81
2023-07-27T17:25:19.880Z,85557.94
2023-07-27T17:27:46.056Z,85567.66
2023-07-27T17:30:12.238Z,85573.69
2023-07-27T17:32:38.403Z,85570.03
2023-07-27T17:35:04.610Z,85572.56
2023-07-27T17:37:30.791Z,85578.44
2023-07-27T17:39:56.963Z,85580.06
2023-07-27T17:42:23.209Z,85575.41
2023-07-27T17:44:49.359Z,85585.13
2023-07-27T17:47:15.533Z,85583.72
2023-07-27T17:49:41.730Z,85582.06
2023-07-27T17:52:07.921Z,85579.97
2023-07-27T17:54:34.083Z,85577.72
2023-07-27T17:57:00.254Z,85584.44
2023-07-27T17:59:26.420Z,85592.19
2023-07-27T18:01:52.651Z,85588.75
2023-07-27T18:04:18.872Z,85592.28
2023-07-27T18:06:45.103Z,85592.25
2023-07-27T18:09:11.298Z,85596.72
2023-07-27T18:11:37.655Z,85596.97
2023-07-27T18:14:04.043Z,85598.47
2023-07-27T18:16:30.250Z,85598.75
2023-07-27T18:18:56.465Z,85604.88
2023-07-27T18:21:22.652Z,85604.31
2023-07-27T18:23:48.872Z,85592.25
2023-07-27T18:26:15.083Z,85603.47
2023-07-27T18:28:41.276Z,85598.19
2023-07-27T18:31:07.487Z,85600.50
2023-07-27T18:33:33.646Z,85609.69
2023-07-27T18:35:59.845Z,85607.03
2023-07-27T18:38:26.007Z,85612.47
2023-07-27T18:40:52.176Z,85617.34
2023-07-27T18:43:18.350Z,85627.13
2023-07-27T18:45:44.582Z,85620.47
2023-07-27T18:48:10.753Z,85628.28
2023-07-27T18:50:36.919Z,85630.44
2023-07-27T18:53:03.099Z,85636.44
2023-07-27T18:55:29.251Z,85639.25
2023-07-27T18:57:55.421Z,85639.66
2023-07-27T19:00:21.585Z,85647.75
2023-07-27T19:02:47.809Z,85649.88
2023-07-27T19:05:14.014Z,85652.94
2023-07-27T19:07:40.175Z,85659.47
2023-07-27T19:10:06.423Z,85656.72
2023-07-27T19:12:32.589Z,85658.66
2023-07-27T19:14:58.748Z,85672.16
2023-07-27T19:17:24.929Z,85671.41
2023-07-27T19:19:51.125Z,85673.09
2023-07-27T19:22:17.297Z,85680.72
2023-07-27T19:24:43.483Z,85682.13
2023-07-27T19:27:09.641Z,85687.75
2023-07-27T19:29:35.826Z,85693.16
2023-07-27T19:32:02.011Z,85697.22
2023-07-27T19:34:28.185Z,85696.53
2023-07-27T19:36:54.336Z,85699.06
2023-07-27T19:39:20.501Z,85694.47
2023-07-27T19:41:46.656Z,85700.00
2023-07-27T19:44:12.817Z,85703.25
2023-07-27T19:46:39.108Z,85713.16
2023-07-27T19:49:05.310Z,85704.50
2023-07-27T19:51:31.474Z,85714.78
2023-07-27T19:53:57.687Z,85706.97
2023-07-27T19:56:23.875Z,85712.81
2023-07-27T19:58:50.083Z,85716.34
2023-07-27T20:01:17.580Z,85716.53
2023-07-27T20:03:44.257Z,85725.72
2023-07-27T20:06:10.429Z,85727.88
2023-07-27T20:08:46.537Z,85731.13
2023-07-27T20:11:13.869Z,85737.81
2023-07-27T20:13:40.050Z,85743.13
2023-07-27T20:16:06.222Z,85740.13
2023-07-27T20:18:32.400Z,85739.59
2023-07-27T20:20:58.570Z,85746.34
2023-07-27T20:23:24.762Z,85743.84
2023-07-27T20:25:50.920Z,85737.13
2023-07-27T20:28:17.116Z,85742.06
2023-07-27T20:30:43.353Z,85746.50
2023-07-27T20:33:09.551Z,85746.84
2023-07-27T20:35:35.732Z,85740.13
2023-07-27T20:38:01.898Z,85740.81
2023-07-27T20:40:28.225Z,85743.84
2023-07-27T20:42:54.440Z,85732.69
2023-07-27T20:45:20.604Z,85737.13
2023-07-27T20:47:46.807Z,85738.72
2023-07-27T20:50:12.977Z,85745.25
2023-07-27T20:52:39.157Z,85745.59
2023-07-27T20:55:05.323Z,85752.44
2023-07-27T20:57:31.470Z,85749.13
2023-07-27T20:59:57.657Z,85754.97
2023-07-27T21:02:23.852Z,85750.38
2023-07-27T21:04:50.017Z,85755.06
2023-07-27T21:07:16.188Z,85743.00
2023-07-27T21:09:42.361Z,85750.97
2023-07-27T21:12:08.532Z,85748.88
2023-07-27T21:14:34.695Z,85747.28
2023-07-27T21:17:00.873Z,85744.63
2023-07-27T21:19:27.037Z,85750.13
2023-07-27T21:21:53.217Z,85746.06
2023-07-27T21:24:19.396Z,85744.47
2023-07-27T21:26:45.548Z,85740.59
2023-07-27T21:29:11.736Z,85741.50
2023-07-27T21:31:37.965Z,85747.28
2023-07-27T21:34:04.171Z,85747.75
2023-07-27T21:36:30.343Z,85746.88
2023-07-27T21:38:56.527Z,85736.81
2023-07-27T21:41:22.693Z,85739.84
2023-07-27T21:43:48.863Z,85740.72
2023-07-27T21:46:15.080Z,85744.75
2023-07-27T21:48:41.286Z,85736.66
2023-07-27T21:51:07.465Z,85738.72
2023-07-27T21:53:33.678Z,85742.25
2023-07-27T21:56:00.712Z,85738.00
2023-07-27T21:58:26.881Z,85730.59
2023-07-27T22:00:53.031Z,85734.28
2023-07-27T22:03:19.232Z,85739.41
2023-07-27T22:05:45.402Z,85731.31
2023-07-27T22:08:11.549Z,85736.94
2023-07-27T22:10:37.733Z,85734.47
2023-07-27T22:13:03.914Z,85729.88
2023-07-27T22:15:30.289Z,85726.03
2023-07-27T22:17:56.642Z,85734.16
2023-07-27T22:20:22.828Z,85729.03
2023-07-27T22:22:49.001Z,85731.34
2023-07-27T22:25:15.163Z,85723.91
2023-07-27T22:27:41.341Z,85720.22
2023-07-27T22:30:07.508Z,85730.13
2023-07-27T22:32:33.693Z,85721.16
2023-07-27T22:34:59.899Z,85728.03
2023-07-27T22:37:26.075Z,85725.34
2023-07-27T22:39:52.245Z,85718.22
2023-07-27T22:42:18.424Z,85725.47
2023-07-27T22:44:44.584Z,85723.69
2023-07-27T22:47:10.808Z,85713.06
2023-07-27T22:49:37.059Z,85721.00
2023-07-27T22:52:03.277Z,85715.19
2023-07-27T22:54:29.472Z,85715.06
2023-07-27T22:56:55.627Z,85707.72
2023-07-27T22:59:21.824Z,85709.47
2023-07-27T23:01:48.166Z,85713.00
2023-07-27T23:04:14.344Z,85715.44
2023-07-27T23:06:40.599Z,85707.66
2023-07-27T23:09:06.768Z,85696.00
2023-07-27T23:11:32.959Z,85689.97
2023-07-27T23:13:59.129Z,85694.56
2023-07-27T23:16:25.347Z,85692.09
2023-07-27T23:18:51.557Z,85689.09
2023-07-27T23:21:17.733Z,85684.34
2023-07-27T23:23:43.896Z,85690.53
2023-07-27T23:26:10.067Z,85682.53
2023-07-27T23:28:36.237Z,85674.25
2023-07-27T23:31:02.433Z,85672.28
2023-07-27T23:33:28.634Z,85664.75
2023-07-27T23:35:54.813Z,85667.03
2023-07-27T23:38:20.974Z,85663.66
2023-07-27T23:40:47.219Z,85662.06
2023-07-27T23:43:13.395Z,85655.13
2023-07-27T23:45:39.567Z,85651.78
2023-07-27T23:48:05.770Z,85652.56
2023-07-27T23:50:31.946Z,85654.34
2023-07-27T23:52:58.135Z,85658.25
2023-07-27T23:55:24.309Z,85655.78
2023-07-27T23:57:50.502Z,85666.19
